sensor_id;sensor_type;location;lat;lon;timestamp;temperature;humidity
16479;DHT22;8350;52.316;10.530;2023-07-02T00:01:49;15.80;99.90
16479;DHT22;8350;52.316;10.530;2023-07-02T00:04:22;15.80;99.90
16479;DHT22;8350;52.316;10.530;2023-07-02T00:06:49;15.80;99.90
16479;DHT22;8350;52.316;10.530;2023-07-02T00:09:22;15.80;99.90
16479;DHT22;8350;52.316;10.530;2023-07-02T00:11:50;15.80;99.90
16479;DHT22;8350;52.316;10.530;2023-07-02T00:14:16;15.80;99.90
16479;DHT22;8350;52.316;10.530;2023-07-02T00:16:45;15.80;99.90
16479;DHT22;8350;52.316;10.530;2023-07-02T00:19:13;15.80;99.90
16479;DHT22;8350;52.316;10.530;2023-07-02T00:21:40;15.80;99.90
16479;DHT22;8350;52.316;10.530;2023-07-02T00:24:08;15.80;99.90
16479;DHT22;8350;52.316;10.530;2023-07-02T00:26:36;15.80;99.90
16479;DHT22;8350;52.316;10.530;2023-07-02T00:29:05;15.80;99.90
16479;DHT22;8350;52.316;10.530;2023-07-02T00:31:33;15.80;99.90
16479;DHT22;8350;52.316;10.530;2023-07-02T00:34:00;15.80;99.90
16479;DHT22;8350;52.316;10.530;2023-07-02T00:36:27;15.80;99.90
16479;DHT22;8350;52.316;10.530;2023-07-02T00:38:54;15.80;99.90
16479;DHT22;8350;52.316;10.530;2023-07-02T00:41:22;15.80;99.90
16479;DHT22;8350;52.316;10.530;2023-07-02T00:43:49;15.80;99.90
16479;DHT22;8350;52.316;10.530;2023-07-02T00:46:22;15.80;99.90
16479;DHT22;8350;52.316;10.530;2023-07-02T00:48:51;15.80;99.90
16479;DHT22;8350;52.316;10.530;2023-07-02T00:51:20;15.80;99.90
16479;DHT22;8350;52.316;10.530;2023-07-02T00:53:48;15.80;99.90
16479;DHT22;8350;52.316;10.530;2023-07-02T00:56:19;15.80;99.90
16479;DHT22;8350;52.316;10.530;2023-07-02T00:58:47;15.80;99.90
16479;DHT22;8350;52.316;10.530;2023-07-02T01:01:16;15.90;99.90
16479;DHT22;8350;52.316;10.530;2023-07-02T01:03:55;15.80;99.90
16479;DHT22;8350;52.316;10.530;2023-07-02T01:06:25;15.80;99.90
16479;DHT22;8350;52.316;10.530;2023-07-02T01:08:54;15.80;99.90
16479;DHT22;8350;52.316;10.530;2023-07-02T01:11:25;15.80;99.90
16479;DHT22;8350;52.316;10.530;2023-07-02T01:13:55;15.80;99.90
16479;DHT22;8350;52.316;10.530;2023-07-02T01:16:22;15.80;99.90
16479;DHT22;8350;52.316;10.530;2023-07-02T01:18:50;15.80;99.90
16479;DHT22;8350;52.316;10.530;2023-07-02T01:21:21;15.80;99.90
16479;DHT22;8350;52.316;10.530;2023-07-02T01:23:52;15.80;99.90
16479;DHT22;8350;52.316;10.530;2023-07-02T01:26:19;15.80;99.90
16479;DHT22;8350;52.316;10.530;2023-07-02T01:28:46;15.80;99.90
16479;DHT22;8350;52.316;10.530;2023-07-02T01:31:13;15.70;99.90
16479;DHT22;8350;52.316;10.530;2023-07-02T01:33:40;15.70;99.90
16479;DHT22;8350;52.316;10.530;2023-07-02T01:36:07;15.80;99.90
16479;DHT22;8350;52.316;10.530;2023-07-02T01:38:35;15.70;99.90
16479;DHT22;8350;52.316;10.530;2023-07-02T01:41:02;15.70;99.90
16479;DHT22;8350;52.316;10.530;2023-07-02T01:43:29;15.70;99.90
16479;DHT22;8350;52.316;10.530;2023-07-02T01:45:57;15.60;99.90
16479;DHT22;8350;52.316;10.530;2023-07-02T01:48:25;15.60;99.90
16479;DHT22;8350;52.316;10.530;2023-07-02T01:50:51;15.60;99.90
16479;DHT22;8350;52.316;10.530;2023-07-02T01:53:18;15.50;99.90
16479;DHT22;8350;52.316;10.530;2023-07-02T01:55:46;15.50;99.90
16479;DHT22;8350;52.316;10.530;2023-07-02T01:58:13;15.40;99.90
16479;DHT22;8350;52.316;10.530;2023-07-02T02:00:42;15.30;99.90
16479;DHT22;8350;52.316;10.530;2023-07-02T02:03:09;15.30;99.90
16479;DHT22;8350;52.316;10.530;2023-07-02T02:05:36;15.30;99.90
16479;DHT22;8350;52.316;10.530;2023-07-02T02:08:03;15.30;99.90
16479;DHT22;8350;52.316;10.530;2023-07-02T02:10:30;15.30;99.90
16479;DHT22;8350;52.316;10.530;2023-07-02T02:12:58;15.30;99.90
16479;DHT22;8350;52.316;10.530;2023-07-02T02:15:24;15.20;99.90
16479;DHT22;8350;52.316;10.530;2023-07-02T02:17:51;15.10;99.90
16479;DHT22;8350;52.316;10.530;2023-07-02T02:20:18;15.10;99.90
16479;DHT22;8350;52.316;10.530;2023-07-02T02:22:45;15.00;99.90
16479;DHT22;8350;52.316;10.530;2023-07-02T02:25:12;15.00;99.90
16479;DHT22;8350;52.316;10.530;2023-07-02T02:27:38;15.00;99.90
16479;DHT22;8350;52.316;10.530;2023-07-02T02:30:07;15.00;99.90
16479;DHT22;8350;52.316;10.530;2023-07-02T02:32:34;15.00;99.90
16479;DHT22;8350;52.316;10.530;2023-07-02T02:35:02;15.00;99.90
16479;DHT22;8350;52.316;10.530;2023-07-02T02:37:29;15.00;99.90
16479;DHT22;8350;52.316;10.530;2023-07-02T02:39:57;14.90;99.90
16479;DHT22;8350;52.316;10.530;2023-07-02T02:42:27;14.80;99.90
16479;DHT22;8350;52.316;10.530;2023-07-02T02:44:53;14.80;99.90
16479;DHT22;8350;52.316;10.530;2023-07-02T02:47:22;14.70;99.90
16479;DHT22;8350;52.316;10.530;2023-07-02T02:49:48;14.70;99.90
16479;DHT22;8350;52.316;10.530;2023-07-02T02:52:15;14.70;99.90
16479;DHT22;8350;52.316;10.530;2023-07-02T02:54:45;14.70;99.90
16479;DHT22;8350;52.316;10.530;2023-07-02T02:57:12;14.80;99.90
16479;DHT22;8350;52.316;10.530;2023-07-02T02:59:40;14.80;99.90
16479;DHT22;8350;52.316;10.530;2023-07-02T03:02:07;14.80;99.90
16479;DHT22;8350;52.316;10.530;2023-07-02T03:04:38;14.70;99.90
16479;DHT22;8350;52.316;10.530;2023-07-02T03:07:06;14.80;99.90
16479;DHT22;8350;52.316;10.530;2023-07-02T03:09:33;14.70;99.90
16479;DHT22;8350;52.316;10.530;2023-07-02T03:12:03;14.80;99.90
16479;DHT22;8350;52.316;10.530;2023-07-02T03:14:30;14.80;99.90
16479;DHT22;8350;52.316;10.530;2023-07-02T03:16:57;14.80;99.90
16479;DHT22;8350;52.316;10.530;2023-07-02T03:19:24;14.80;99.90
16479;DHT22;8350;52.316;10.530;2023-07-02T03:21:55;14.80;99.90
16479;DHT22;8350;52.316;10.530;2023-07-02T03:24:21;14.90;99.90
16479;DHT22;8350;52.316;10.530;2023-07-02T03:26:48;14.90;99.90
16479;DHT22;8350;52.316;10.530;2023-07-02T03:29:18;14.90;99.90
16479;DHT22;8350;52.316;10.530;2023-07-02T03:31:46;14.90;99.90
16479;DHT22;8350;52.316;10.530;2023-07-02T03:34:12;14.90;99.90
16479;DHT22;8350;52.316;10.530;2023-07-02T03:36:39;14.90;99.90
16479;DHT22;8350;52.316;10.530;2023-07-02T03:39:07;15.00;99.90
16479;DHT22;8350;52.316;10.530;2023-07-02T03:41:34;15.00;99.90
16479;DHT22;8350;52.316;10.530;2023-07-02T03:44:01;15.00;99.90
16479;DHT22;8350;52.316;10.530;2023-07-02T03:46:28;15.00;99.90
16479;DHT22;8350;52.316;10.530;2023-07-02T03:48:56;15.00;99.90
16479;DHT22;8350;52.316;10.530;2023-07-02T03:51:23;15.00;99.90
16479;DHT22;8350;52.316;10.530;2023-07-02T03:53:49;14.90;99.90
16479;DHT22;8350;52.316;10.530;2023-07-02T03:56:18;15.00;99.90
16479;DHT22;8350;52.316;10.530;2023-07-02T03:58:44;15.00;99.90
16479;DHT22;8350;52.316;10.530;2023-07-02T04:01:11;15.10;99.90
16479;DHT22;8350;52.316;10.530;2023-07-02T04:03:38;15.20;99.90
16479;DHT22;8350;52.316;10.530;2023-07-02T04:06:05;15.20;99.90
16479;DHT22;8350;52.316;10.530;2023-07-02T04:08:32;15.20;99.90
16479;DHT22;8350;52.316;10.530;2023-07-02T04:10:59;15.20;99.90
16479;DHT22;8350;52.316;10.530;2023-07-02T04:13:27;15.30;99.90
16479;DHT22;8350;52.316;10.530;2023-07-02T04:15:54;15.30;99.90
16479;DHT22;8350;52.316;10.530;2023-07-02T04:18:21;15.20;99.90
16479;DHT22;8350;52.316;10.530;2023-07-02T04:20:48;15.30;99.90
16479;DHT22;8350;52.316;10.530;2023-07-02T04:23:15;15.40;99.90
16479;DHT22;8350;52.316;10.530;2023-07-02T04:25:41;15.50;99.90
16479;DHT22;8350;52.316;10.530;2023-07-02T04:28:08;15.50;99.90
16479;DHT22;8350;52.316;10.530;2023-07-02T04:30:36;15.50;99.90
16479;DHT22;8350;52.316;10.530;2023-07-02T04:33:03;15.50;99.90
16479;DHT22;8350;52.316;10.530;2023-07-02T04:35:33;15.50;99.90
16479;DHT22;8350;52.316;10.530;2023-07-02T04:38:00;15.50;99.90
16479;DHT22;8350;52.316;10.530;2023-07-02T04:40:27;15.50;99.90
16479;DHT22;8350;52.316;10.530;2023-07-02T04:42:54;15.40;99.90
16479;DHT22;8350;52.316;10.530;2023-07-02T04:45:24;15.40;99.90
16479;DHT22;8350;52.316;10.530;2023-07-02T04:47:53;15.40;99.90
16479;DHT22;8350;52.316;10.530;2023-07-02T04:50:20;15.40;99.90
16479;DHT22;8350;52.316;10.530;2023-07-02T04:52:47;15.40;99.90
16479;DHT22;8350;52.316;10.530;2023-07-02T04:55:14;15.40;99.90
16479;DHT22;8350;52.316;10.530;2023-07-02T04:57:40;15.30;99.90
16479;DHT22;8350;52.316;10.530;2023-07-02T05:00:08;15.40;99.90
16479;DHT22;8350;52.316;10.530;2023-07-02T05:02:35;15.30;99.90
16479;DHT22;8350;52.316;10.530;2023-07-02T05:05:03;15.30;99.90
16479;DHT22;8350;52.316;10.530;2023-07-02T05:07:30;15.20;99.90
16479;DHT22;8350;52.316;10.530;2023-07-02T05:09:57;15.30;99.90
16479;DHT22;8350;52.316;10.530;2023-07-02T05:12:24;15.30;99.90
16479;DHT22;8350;52.316;10.530;2023-07-02T05:14:53;15.30;99.90
16479;DHT22;8350;52.316;10.530;2023-07-02T05:17:20;15.30;99.90
16479;DHT22;8350;52.316;10.530;2023-07-02T05:19:47;15.30;99.90
16479;DHT22;8350;52.316;10.530;2023-07-02T05:22:15;15.30;99.90
16479;DHT22;8350;52.316;10.530;2023-07-02T05:24:49;15.40;99.90
16479;DHT22;8350;52.316;10.530;2023-07-02T05:27:22;15.40;99.90
16479;DHT22;8350;52.316;10.530;2023-07-02T05:29:50;15.40;99.90
16479;DHT22;8350;52.316;10.530;2023-07-02T05:32:17;15.40;99.90
16479;DHT22;8350;52.316;10.530;2023-07-02T05:34:44;15.40;99.90
16479;DHT22;8350;52.316;10.530;2023-07-02T05:37:10;15.40;99.90
16479;DHT22;8350;52.316;10.530;2023-07-02T05:39:39;15.40;99.90
16479;DHT22;8350;52.316;10.530;2023-07-02T05:42:08;15.50;99.90
16479;DHT22;8350;52.316;10.530;2023-07-02T05:44:34;15.40;99.90
16479;DHT22;8350;52.316;10.530;2023-07-02T05:47:01;15.40;99.90
16479;DHT22;8350;52.316;10.530;2023-07-02T05:49:28;15.40;99.90
16479;DHT22;8350;52.316;10.530;2023-07-02T05:51:55;15.20;99.90
16479;DHT22;8350;52.316;10.530;2023-07-02T05:54:22;15.20;99.90
16479;DHT22;8350;52.316;10.530;2023-07-02T05:56:50;15.20;99.90
16479;DHT22;8350;52.316;10.530;2023-07-02T05:59:17;15.20;99.90
16479;DHT22;8350;52.316;10.530;2023-07-02T06:01:45;15.10;99.90
16479;DHT22;8350;52.316;10.530;2023-07-02T06:04:17;15.00;99.90
16479;DHT22;8350;52.316;10.530;2023-07-02T06:06:44;15.00;99.90
16479;DHT22;8350;52.316;10.530;2023-07-02T06:09:11;15.00;99.90
16479;DHT22;8350;52.316;10.530;2023-07-02T06:11:37;15.00;99.90
16479;DHT22;8350;52.316;10.530;2023-07-02T06:14:07;14.90;99.90
16479;DHT22;8350;52.316;10.530;2023-07-02T06:16:33;15.00;99.90
16479;DHT22;8350;52.316;10.530;2023-07-02T06:19:00;15.00;99.90
16479;DHT22;8350;52.316;10.530;2023-07-02T06:21:27;15.00;99.90
16479;DHT22;8350;52.316;10.530;2023-07-02T06:24:01;15.10;99.90
16479;DHT22;8350;52.316;10.530;2023-07-02T06:26:28;15.20;99.90
16479;DHT22;8350;52.316;10.530;2023-07-02T06:28:56;15.40;99.90
16479;DHT22;8350;52.316;10.530;2023-07-02T06:31:25;15.40;99.90
16479;DHT22;8350;52.316;10.530;2023-07-02T06:33:52;15.60;99.90
16479;DHT22;8350;52.316;10.530;2023-07-02T06:36:19;15.80;99.90
16479;DHT22;8350;52.316;10.530;2023-07-02T06:38:46;15.90;99.90
16479;DHT22;8350;52.316;10.530;2023-07-02T06:41:13;16.10;99.90
16479;DHT22;8350;52.316;10.530;2023-07-02T06:43:41;16.20;99.90
16479;DHT22;8350;52.316;10.530;2023-07-02T06:46:10;16.50;99.90
16479;DHT22;8350;52.316;10.530;2023-07-02T06:48:38;16.70;99.90
16479;DHT22;8350;52.316;10.530;2023-07-02T06:51:05;16.60;99.90
16479;DHT22;8350;52.316;10.530;2023-07-02T06:53:32;17.00;99.90
16479;DHT22;8350;52.316;10.530;2023-07-02T06:55:59;17.40;99.90
16479;DHT22;8350;52.316;10.530;2023-07-02T06:58:26;17.80;99.90
16479;DHT22;8350;52.316;10.530;2023-07-02T07:00:52;18.20;99.90
16479;DHT22;8350;52.316;10.530;2023-07-02T07:03:19;18.50;99.90
16479;DHT22;8350;52.316;10.530;2023-07-02T07:05:47;18.80;99.90
16479;DHT22;8350;52.316;10.530;2023-07-02T07:08:16;19.00;99.90
16479;DHT22;8350;52.316;10.530;2023-07-02T07:10:43;19.00;99.90
16479;DHT22;8350;52.316;10.530;2023-07-02T07:13:11;19.30;99.90
16479;DHT22;8350;52.316;10.530;2023-07-02T07:15:37;19.40;99.90
16479;DHT22;8350;52.316;10.530;2023-07-02T07:18:04;19.40;99.90
16479;DHT22;8350;52.316;10.530;2023-07-02T07:20:31;19.30;99.90
16479;DHT22;8350;52.316;10.530;2023-07-02T07:26:00;19.50;99.90
16479;DHT22;8350;52.316;10.530;2023-07-02T07:28:26;19.50;99.90
16479;DHT22;8350;52.316;10.530;2023-07-02T07:30:56;19.60;99.90
16479;DHT22;8350;52.316;10.530;2023-07-02T07:33:23;19.50;99.90
16479;DHT22;8350;52.316;10.530;2023-07-02T07:35:50;19.80;99.90
16479;DHT22;8350;52.316;10.530;2023-07-02T07:38:17;20.10;99.90
16479;DHT22;8350;52.316;10.530;2023-07-02T07:40:44;19.90;99.90
16479;DHT22;8350;52.316;10.530;2023-07-02T07:43:12;19.80;99.90
16479;DHT22;8350;52.316;10.530;2023-07-02T07:45:39;19.70;99.90
16479;DHT22;8350;52.316;10.530;2023-07-02T07:48:06;19.80;99.90
16479;DHT22;8350;52.316;10.530;2023-07-02T07:50:33;19.90;99.90
16479;DHT22;8350;52.316;10.530;2023-07-02T07:53:00;19.90;99.90
16479;DHT22;8350;52.316;10.530;2023-07-02T07:55:26;20.00;99.90
16479;DHT22;8350;52.316;10.530;2023-07-02T07:57:53;20.10;99.90
16479;DHT22;8350;52.316;10.530;2023-07-02T08:00:24;20.30;99.90
16479;DHT22;8350;52.316;10.530;2023-07-02T08:02:52;20.50;99.90
16479;DHT22;8350;52.316;10.530;2023-07-02T08:05:23;20.50;99.90
16479;DHT22;8350;52.316;10.530;2023-07-02T08:07:53;20.20;99.90
16479;DHT22;8350;52.316;10.530;2023-07-02T08:10:20;20.00;99.90
16479;DHT22;8350;52.316;10.530;2023-07-02T08:12:46;19.70;99.90
16479;DHT22;8350;52.316;10.530;2023-07-02T08:15:14;19.50;99.90
16479;DHT22;8350;52.316;10.530;2023-07-02T08:17:42;19.50;99.90
16479;DHT22;8350;52.316;10.530;2023-07-02T08:20:10;19.50;99.90
16479;DHT22;8350;52.316;10.530;2023-07-02T08:22:37;19.40;99.90
16479;DHT22;8350;52.316;10.530;2023-07-02T08:25:05;19.30;99.90
16479;DHT22;8350;52.316;10.530;2023-07-02T08:27:32;19.60;99.90
16479;DHT22;8350;52.316;10.530;2023-07-02T08:29:58;19.90;99.90
16479;DHT22;8350;52.316;10.530;2023-07-02T08:32:25;20.10;99.90
16479;DHT22;8350;52.316;10.530;2023-07-02T08:34:53;20.10;99.90
16479;DHT22;8350;52.316;10.530;2023-07-02T08:37:23;20.00;99.90
16479;DHT22;8350;52.316;10.530;2023-07-02T08:39:50;20.20;99.90
16479;DHT22;8350;52.316;10.530;2023-07-02T08:42:17;20.20;99.90
16479;DHT22;8350;52.316;10.530;2023-07-02T08:44:45;20.30;99.90
16479;DHT22;8350;52.316;10.530;2023-07-02T08:47:13;20.50;99.90
16479;DHT22;8350;52.316;10.530;2023-07-02T08:49:39;20.20;99.90
16479;DHT22;8350;52.316;10.530;2023-07-02T08:52:09;20.50;99.90
16479;DHT22;8350;52.316;10.530;2023-07-02T08:54:36;20.80;99.90
16479;DHT22;8350;52.316;10.530;2023-07-02T08:57:04;20.80;99.90
16479;DHT22;8350;52.316;10.530;2023-07-02T08:59:32;20.80;99.90
16479;DHT22;8350;52.316;10.530;2023-07-02T09:01:58;20.80;99.90
16479;DHT22;8350;52.316;10.530;2023-07-02T09:04:25;20.50;99.90
16479;DHT22;8350;52.316;10.530;2023-07-02T09:07:03;20.70;99.90
16479;DHT22;8350;52.316;10.530;2023-07-02T09:09:32;20.90;99.90
16479;DHT22;8350;52.316;10.530;2023-07-02T09:12:00;20.90;99.90
16479;DHT22;8350;52.316;10.530;2023-07-02T09:14:28;20.70;99.90
16479;DHT22;8350;52.316;10.530;2023-07-02T09:17:06;20.90;99.90
16479;DHT22;8350;52.316;10.530;2023-07-02T09:19:34;21.20;99.90
16479;DHT22;8350;52.316;10.530;2023-07-02T09:22:02;21.10;99.90
16479;DHT22;8350;52.316;10.530;2023-07-02T09:24:37;21.00;99.90
16479;DHT22;8350;52.316;10.530;2023-07-02T09:27:10;20.50;99.90
16479;DHT22;8350;52.316;10.530;2023-07-02T09:29:37;20.40;99.90
16479;DHT22;8350;52.316;10.530;2023-07-02T09:32:04;20.60;99.90
16479;DHT22;8350;52.316;10.530;2023-07-02T09:34:33;20.30;99.90
16479;DHT22;8350;52.316;10.530;2023-07-02T09:37:01;20.10;99.90
16479;DHT22;8350;52.316;10.530;2023-07-02T09:39:29;20.20;99.90
16479;DHT22;8350;52.316;10.530;2023-07-02T09:42:00;20.50;99.90
16479;DHT22;8350;52.316;10.530;2023-07-02T09:44:28;20.90;99.90
16479;DHT22;8350;52.316;10.530;2023-07-02T09:47:01;21.20;99.90
16479;DHT22;8350;52.316;10.530;2023-07-02T09:49:32;21.40;99.90
16479;DHT22;8350;52.316;10.530;2023-07-02T09:52:01;21.30;99.90
16479;DHT22;8350;52.316;10.530;2023-07-02T09:54:29;21.30;99.90
16479;DHT22;8350;52.316;10.530;2023-07-02T09:56:57;21.20;99.90
16479;DHT22;8350;52.316;10.530;2023-07-02T09:59:24;20.80;99.90
16479;DHT22;8350;52.316;10.530;2023-07-02T10:01:51;20.50;99.90
16479;DHT22;8350;52.316;10.530;2023-07-02T10:04:19;20.50;99.90
16479;DHT22;8350;52.316;10.530;2023-07-02T10:06:50;20.80;99.90
16479;DHT22;8350;52.316;10.530;2023-07-02T10:09:17;21.30;99.90
16479;DHT22;8350;52.316;10.530;2023-07-02T10:11:44;21.30;99.90
16479;DHT22;8350;52.316;10.530;2023-07-02T10:14:13;21.40;99.90
16479;DHT22;8350;52.316;10.530;2023-07-02T10:16:54;21.40;99.90
16479;DHT22;8350;52.316;10.530;2023-07-02T10:19:21;21.60;99.90
16479;DHT22;8350;52.316;10.530;2023-07-02T10:22:01;21.70;99.90
16479;DHT22;8350;52.316;10.530;2023-07-02T10:24:28;21.70;99.90
16479;DHT22;8350;52.316;10.530;2023-07-02T10:26:57;21.70;99.90
16479;DHT22;8350;52.316;10.530;2023-07-02T10:29:27;21.40;99.90
16479;DHT22;8350;52.316;10.530;2023-07-02T10:31:57;21.20;99.90
16479;DHT22;8350;52.316;10.530;2023-07-02T10:34:30;21.00;99.90
16479;DHT22;8350;52.316;10.530;2023-07-02T10:36:57;20.90;99.90
16479;DHT22;8350;52.316;10.530;2023-07-02T10:39:24;21.00;99.90
16479;DHT22;8350;52.316;10.530;2023-07-02T10:41:52;21.30;1.00
16479;DHT22;8350;52.316;10.530;2023-07-02T10:44:18;21.60;1.00
16479;DHT22;8350;52.316;10.530;2023-07-02T10:46:47;21.80;1.00
16479;DHT22;8350;52.316;10.530;2023-07-02T10:49:17;21.90;1.00
16479;DHT22;8350;52.316;10.530;2023-07-02T10:51:44;22.20;1.00
16479;DHT22;8350;52.316;10.530;2023-07-02T10:54:13;22.40;1.00
16479;DHT22;8350;52.316;10.530;2023-07-02T10:56:41;22.40;1.00
16479;DHT22;8350;52.316;10.530;2023-07-02T10:59:08;22.10;99.90
16479;DHT22;8350;52.316;10.530;2023-07-02T11:01:35;22.10;1.00
16479;DHT22;8350;52.316;10.530;2023-07-02T11:04:04;22.10;1.00
16479;DHT22;8350;52.316;10.530;2023-07-02T11:06:32;22.00;1.00
16479;DHT22;8350;52.316;10.530;2023-07-02T11:08:59;21.60;1.00
16479;DHT22;8350;52.316;10.530;2023-07-02T11:11:27;21.50;1.00
16479;DHT22;8350;52.316;10.530;2023-07-02T11:13:54;21.80;99.90
16479;DHT22;8350;52.316;10.530;2023-07-02T11:16:22;22.00;1.00
16479;DHT22;8350;52.316;10.530;2023-07-02T11:18:52;22.20;99.90
16479;DHT22;8350;52.316;10.530;2023-07-02T11:21:21;22.50;1.00
16479;DHT22;8350;52.316;10.530;2023-07-02T11:23:48;22.70;99.90
16479;DHT22;8350;52.316;10.530;2023-07-02T11:26:15;22.80;1.00
16479;DHT22;8350;52.316;10.530;2023-07-02T11:28:49;22.40;99.90
16479;DHT22;8350;52.316;10.530;2023-07-02T11:31:26;21.90;99.90
16479;DHT22;8350;52.316;10.530;2023-07-02T11:33:53;21.50;1.00
16479;DHT22;8350;52.316;10.530;2023-07-02T11:36:23;21.40;1.00
16479;DHT22;8350;52.316;10.530;2023-07-02T11:38:51;21.10;1.00
16479;DHT22;8350;52.316;10.530;2023-07-02T11:41:19;21.20;1.00
16479;DHT22;8350;52.316;10.530;2023-07-02T11:43:46;21.20;1.00
16479;DHT22;8350;52.316;10.530;2023-07-02T11:46:13;21.50;97.90
16479;DHT22;8350;52.316;10.530;2023-07-02T11:48:40;21.60;1.00
16479;DHT22;8350;52.316;10.530;2023-07-02T11:51:07;21.40;1.00
16479;DHT22;8350;52.316;10.530;2023-07-02T11:53:35;21.40;1.00
16479;DHT22;8350;52.316;10.530;2023-07-02T11:56:02;21.50;1.00
16479;DHT22;8350;52.316;10.530;2023-07-02T11:58:29;21.40;1.00
16479;DHT22;8350;52.316;10.530;2023-07-02T12:00:56;21.50;1.00
16479;DHT22;8350;52.316;10.530;2023-07-02T12:03:23;21.70;40.70
16479;DHT22;8350;52.316;10.530;2023-07-02T12:05:49;21.70;1.00
16479;DHT22;8350;52.316;10.530;2023-07-02T12:08:16;21.40;1.00
16479;DHT22;8350;52.316;10.530;2023-07-02T12:10:45;21.00;1.00
16479;DHT22;8350;52.316;10.530;2023-07-02T12:13:12;20.60;1.00
16479;DHT22;8350;52.316;10.530;2023-07-02T12:15:38;20.80;99.90
16479;DHT22;8350;52.316;10.530;2023-07-02T12:18:06;21.20;1.00
16479;DHT22;8350;52.316;10.530;2023-07-02T12:20:33;21.60;99.90
16479;DHT22;8350;52.316;10.530;2023-07-02T12:23:00;22.00;99.90
16479;DHT22;8350;52.316;10.530;2023-07-02T12:25:29;22.20;1.00
16479;DHT22;8350;52.316;10.530;2023-07-02T12:27:59;21.90;1.00
16479;DHT22;8350;52.316;10.530;2023-07-02T12:30:26;21.50;1.00
16479;DHT22;8350;52.316;10.530;2023-07-02T12:32:52;21.20;1.00
16479;DHT22;8350;52.316;10.530;2023-07-02T12:35:19;21.00;99.90
16479;DHT22;8350;52.316;10.530;2023-07-02T12:37:47;20.90;44.00
16479;DHT22;8350;52.316;10.530;2023-07-02T12:40:14;20.80;1.00
16479;DHT22;8350;52.316;10.530;2023-07-02T12:42:42;20.50;1.00
16479;DHT22;8350;52.316;10.530;2023-07-02T12:45:11;20.50;99.90
16479;DHT22;8350;52.316;10.530;2023-07-02T12:47:39;20.60;99.90
16479;DHT22;8350;52.316;10.530;2023-07-02T12:50:07;20.80;1.00
16479;DHT22;8350;52.316;10.530;2023-07-02T12:52:34;21.10;99.90
16479;DHT22;8350;52.316;10.530;2023-07-02T12:55:02;21.10;99.90
16479;DHT22;8350;52.316;10.530;2023-07-02T12:57:29;21.10;99.90
16479;DHT22;8350;52.316;10.530;2023-07-02T12:59:56;21.10;99.90
16479;DHT22;8350;52.316;10.530;2023-07-02T13:02:24;21.20;99.90
16479;DHT22;8350;52.316;10.530;2023-07-02T13:04:51;21.40;99.90
16479;DHT22;8350;52.316;10.530;2023-07-02T13:07:18;21.80;28.20
16479;DHT22;8350;52.316;10.530;2023-07-02T13:09:45;22.00;1.00
16479;DHT22;8350;52.316;10.530;2023-07-02T13:12:12;22.20;99.90
16479;DHT22;8350;52.316;10.530;2023-07-02T13:14:39;22.20;1.00
16479;DHT22;8350;52.316;10.530;2023-07-02T13:17:05;22.00;1.00
16479;DHT22;8350;52.316;10.530;2023-07-02T13:19:34;21.70;1.00
16479;DHT22;8350;52.316;10.530;2023-07-02T13:22:01;21.60;1.00
16479;DHT22;8350;52.316;10.530;2023-07-02T13:24:32;21.40;1.00
16479;DHT22;8350;52.316;10.530;2023-07-02T13:27:02;21.60;1.00
16479;DHT22;8350;52.316;10.530;2023-07-02T13:29:29;21.60;1.00
16479;DHT22;8350;52.316;10.530;2023-07-02T13:31:56;21.60;1.00
16479;DHT22;8350;52.316;10.530;2023-07-02T13:34:25;21.50;1.00
16479;DHT22;8350;52.316;10.530;2023-07-02T13:36:53;21.60;1.00
16479;DHT22;8350;52.316;10.530;2023-07-02T13:39:20;21.70;1.00
16479;DHT22;8350;52.316;10.530;2023-07-02T13:41:47;21.60;1.00
16479;DHT22;8350;52.316;10.530;2023-07-02T13:44:14;21.50;1.00
16479;DHT22;8350;52.316;10.530;2023-07-02T13:46:43;21.70;1.00
16479;DHT22;8350;52.316;10.530;2023-07-02T13:49:10;21.90;1.00
16479;DHT22;8350;52.316;10.530;2023-07-02T13:51:39;21.90;1.00
16479;DHT22;8350;52.316;10.530;2023-07-02T13:54:09;22.00;1.00
16479;DHT22;8350;52.316;10.530;2023-07-02T13:56:36;22.00;1.00
16479;DHT22;8350;52.316;10.530;2023-07-02T13:59:05;21.80;1.00
16479;DHT22;8350;52.316;10.530;2023-07-02T14:01:34;21.80;1.00
16479;DHT22;8350;52.316;10.530;2023-07-02T14:04:02;21.90;1.00
16479;DHT22;8350;52.316;10.530;2023-07-02T14:06:29;21.80;1.00
16479;DHT22;8350;52.316;10.530;2023-07-02T14:08:55;21.60;1.00
16479;DHT22;8350;52.316;10.530;2023-07-02T14:11:23;21.70;1.00
16479;DHT22;8350;52.316;10.530;2023-07-02T14:13:50;22.10;1.00
16479;DHT22;8350;52.316;10.530;2023-07-02T14:16:19;22.50;99.90
16479;DHT22;8350;52.316;10.530;2023-07-02T14:18:47;22.60;99.90
16479;DHT22;8350;52.316;10.530;2023-07-02T14:21:14;22.50;99.90
16479;DHT22;8350;52.316;10.530;2023-07-02T14:23:41;22.40;1.00
16479;DHT22;8350;52.316;10.530;2023-07-02T14:26:08;22.60;99.90
16479;DHT22;8350;52.316;10.530;2023-07-02T14:28:34;22.50;99.90
16479;DHT22;8350;52.316;10.530;2023-07-02T14:31:03;22.20;99.90
16479;DHT22;8350;52.316;10.530;2023-07-02T14:33:33;22.00;1.00
16479;DHT22;8350;52.316;10.530;2023-07-02T14:36:01;22.00;1.00
16479;DHT22;8350;52.316;10.530;2023-07-02T14:38:29;22.10;99.90
16479;DHT22;8350;52.316;10.530;2023-07-02T14:40:56;22.10;1.00
16479;DHT22;8350;52.316;10.530;2023-07-02T14:43:24;22.30;99.90
16479;DHT22;8350;52.316;10.530;2023-07-02T14:45:53;22.50;99.90
16479;DHT22;8350;52.316;10.530;2023-07-02T14:48:23;22.60;99.90
16479;DHT22;8350;52.316;10.530;2023-07-02T14:51:05;22.60;99.90
16479;DHT22;8350;52.316;10.530;2023-07-02T14:53:40;22.60;97.50
16479;DHT22;8350;52.316;10.530;2023-07-02T14:56:07;22.50;99.90
16479;DHT22;8350;52.316;10.530;2023-07-02T14:58:34;22.50;99.90
16479;DHT22;8350;52.316;10.530;2023-07-02T15:01:03;22.30;99.90
16479;DHT22;8350;52.316;10.530;2023-07-02T15:03:30;22.10;99.90
16479;DHT22;8350;52.316;10.530;2023-07-02T15:06:07;21.90;40.30
16479;DHT22;8350;52.316;10.530;2023-07-02T15:08:34;21.80;99.90
16479;DHT22;8350;52.316;10.530;2023-07-02T15:11:02;22.00;99.90
16479;DHT22;8350;52.316;10.530;2023-07-02T15:13:29;22.10;99.90
16479;DHT22;8350;52.316;10.530;2023-07-02T15:15:56;22.00;99.90
16479;DHT22;8350;52.316;10.530;2023-07-02T15:18:23;21.80;99.90
16479;DHT22;8350;52.316;10.530;2023-07-02T15:20:50;21.70;99.90
16479;DHT22;8350;52.316;10.530;2023-07-02T15:23:20;21.80;99.90
16479;DHT22;8350;52.316;10.530;2023-07-02T15:25:50;21.90;99.90
16479;DHT22;8350;52.316;10.530;2023-07-02T15:28:18;21.90;99.90
16479;DHT22;8350;52.316;10.530;2023-07-02T15:30:45;21.80;99.90
16479;DHT22;8350;52.316;10.530;2023-07-02T15:33:12;21.70;99.90
16479;DHT22;8350;52.316;10.530;2023-07-02T15:35:39;21.80;99.90
16479;DHT22;8350;52.316;10.530;2023-07-02T15:38:05;21.90;68.90
16479;DHT22;8350;52.316;10.530;2023-07-02T15:40:34;21.90;96.80